DAL2187 MGGT-MHTG
Flight info
| Callsign | DAL2187 |
|---|---|
| Flight time | 0h 39m |
| Altitude | 31000 |
| Route | PALEN DCT LAGOX UA552 NAGEL DCT VITAN VITAN1A |
| Aircraft | E195/M-SDE3GILORVW/S |
Departure
| Time | 2026-04-22 00:45 |
|---|---|
| Airport | La Aurora International Airport (MGGT) |
Arrival
| Time | 2026-04-22 01:24 |
|---|---|
| Airport | Toncontín Airport (MHTG) |
| Time | Latitude | Longitude | Altitude | Speed | Heading |
|---|---|---|---|---|---|
| 2026-04-22 00:31 | 14.59005 | -90.52840 | 4916 ft | 0 kts | 287° |
| 2026-04-22 00:34 | 14.59004 | -90.52835 | 4918 ft | 2 kts | 287° |
| 2026-04-22 00:35 | 14.59000 | -90.52821 | 4918 ft | 2 kts | 287° |
| 2026-04-22 00:35 | 14.58995 | -90.52807 | 4918 ft | 2 kts | 287° |
| 2026-04-22 00:35 | 14.58991 | -90.52792 | 4918 ft | 2 kts | 287° |
| 2026-04-22 00:35 | 14.58986 | -90.52777 | 4918 ft | 2 kts | 287° |
| 2026-04-22 00:36 | 14.58982 | -90.52764 | 4918 ft | 0 kts | 287° |
| 2026-04-22 00:36 | 14.58981 | -90.52753 | 4918 ft | 2 kts | 248° |
| 2026-04-22 00:36 | 14.58990 | -90.52743 | 4918 ft | 1 kts | 199° |
| 2026-04-22 00:36 | 14.58994 | -90.52742 | 4918 ft | 0 kts | 197° |
| 2026-04-22 00:38 | 14.58991 | -90.52743 | 4918 ft | 0 kts | 197° |
| 2026-04-22 00:38 | 14.58974 | -90.52748 | 4917 ft | 4 kts | 197° |
| 2026-04-22 00:39 | 14.58933 | -90.52762 | 4916 ft | 7 kts | 197° |
| 2026-04-22 00:39 | 14.58872 | -90.52781 | 4915 ft | 10 kts | 197° |
| 2026-04-22 00:39 | 14.58793 | -90.52805 | 4913 ft | 13 kts | 196° |
| 2026-04-22 00:39 | 14.58701 | -90.52788 | 4910 ft | 15 kts | 124° |
| 2026-04-22 00:40 | 14.58677 | -90.52721 | 4910 ft | 6 kts | 130° |
| 2026-04-22 00:40 | 14.58628 | -90.52719 | 4909 ft | 8 kts | 198° |
| 2026-04-22 00:40 | 14.58556 | -90.52743 | 4906 ft | 12 kts | 197° |
| 2026-04-22 00:40 | 14.58463 | -90.52773 | 4904 ft | 15 kts | 197° |
| 2026-04-22 00:41 | 14.58347 | -90.52809 | 4899 ft | 19 kts | 197° |
| 2026-04-22 00:41 | 14.58210 | -90.52853 | 4896 ft | 22 kts | 197° |
| 2026-04-22 00:41 | 14.58057 | -90.52904 | 4893 ft | 24 kts | 197° |
| 2026-04-22 00:41 | 14.57890 | -90.52956 | 4891 ft | 25 kts | 197° |
| 2026-04-22 00:42 | 14.57719 | -90.53011 | 4891 ft | 25 kts | 198° |
| 2026-04-22 00:42 | 14.57546 | -90.53068 | 4892 ft | 26 kts | 197° |
| 2026-04-22 00:42 | 14.57375 | -90.53122 | 4893 ft | 24 kts | 198° |
| 2026-04-22 00:42 | 14.57235 | -90.53168 | 4893 ft | 19 kts | 198° |
| 2026-04-22 00:43 | 14.57120 | -90.53204 | 4893 ft | 13 kts | 198° |
| 2026-04-22 00:43 | 14.57077 | -90.53168 | 4893 ft | 5 kts | 84° |
| 2026-04-22 00:43 | 14.57088 | -90.53149 | 4893 ft | 0 kts | 33° |
| 2026-04-22 00:43 | 14.57092 | -90.53147 | 4893 ft | 0 kts | 24° |
| 2026-04-22 00:44 | 14.57101 | -90.53143 | 4893 ft | 1 kts | 21° |
| 2026-04-22 00:44 | 14.57154 | -90.53124 | 4893 ft | 19 kts | 18° |
| 2026-04-22 00:44 | 14.57515 | -90.53011 | 4893 ft | 90 kts | 18° |
| 2026-04-22 00:44 | 14.58326 | -90.52750 | 4899 ft | 151 kts | 18° |
| 2026-04-22 00:45 | 14.59417 | -90.52413 | 5262 ft | 167 kts | 15° |
| 2026-04-22 00:45 | 14.60548 | -90.52098 | 5923 ft | 172 kts | 18° |
| 2026-04-22 00:45 | 14.61690 | -90.51714 | 6523 ft | 173 kts | 18° |
| 2026-04-22 00:45 | 14.62913 | -90.51308 | 6802 ft | 196 kts | 18° |
| 2026-04-22 00:46 | 14.64245 | -90.50767 | 7049 ft | 218 kts | 36° |
| 2026-04-22 00:46 | 14.65112 | -90.49447 | 7393 ft | 238 kts | 75° |
| 2026-04-22 00:46 | 14.65208 | -90.47701 | 7961 ft | 241 kts | 86° |
| 2026-04-22 00:46 | 14.65241 | -90.45949 | 8376 ft | 256 kts | 86° |
| 2026-04-22 00:47 | 14.65301 | -90.44004 | 8727 ft | 278 kts | 85° |
| 2026-04-22 00:47 | 14.65375 | -90.41976 | 9320 ft | 289 kts | 85° |
| 2026-04-22 00:47 | 14.65457 | -90.39901 | 10093 ft | 292 kts | 85° |
| 2026-04-22 00:47 | 14.65541 | -90.37833 | 10872 ft | 293 kts | 86° |
| 2026-04-22 00:48 | 14.65630 | -90.35706 | 11533 ft | 300 kts | 86° |
| 2026-04-22 00:48 | 14.65721 | -90.33529 | 12053 ft | 311 kts | 86° |
| 2026-04-22 00:48 | 14.65704 | -90.31232 | 12555 ft | 322 kts | 101° |
| 2026-04-22 00:48 | 14.64790 | -90.29116 | 13152 ft | 330 kts | 124° |
| 2026-04-22 00:49 | 14.63457 | -90.27191 | 13873 ft | 332 kts | 124° |
| 2026-04-22 00:49 | 14.62105 | -90.25233 | 14599 ft | 334 kts | 124° |
| 2026-04-22 00:49 | 14.60772 | -90.23295 | 15268 ft | 337 kts | 124° |
| 2026-04-22 00:49 | 14.59399 | -90.21298 | 15894 ft | 340 kts | 124° |
| 2026-04-22 00:50 | 14.58028 | -90.19302 | 16501 ft | 344 kts | 124° |
| 2026-04-22 00:50 | 14.56650 | -90.17297 | 17084 ft | 347 kts | 124° |
| 2026-04-22 00:50 | 14.55242 | -90.15248 | 17656 ft | 351 kts | 124° |
| 2026-04-22 00:50 | 14.53829 | -90.13193 | 18232 ft | 354 kts | 124° |
| 2026-04-22 00:51 | 14.52399 | -90.11114 | 18777 ft | 358 kts | 124° |
| 2026-04-22 00:51 | 14.50939 | -90.08991 | 19334 ft | 362 kts | 124° |
| 2026-04-22 00:51 | 14.49866 | -90.06681 | 19851 ft | 363 kts | 103° |
| 2026-04-22 00:51 | 14.49398 | -90.04116 | 20370 ft | 367 kts | 99° |
| 2026-04-22 00:52 | 14.48969 | -90.01488 | 20893 ft | 370 kts | 99° |
| 2026-04-22 00:52 | 14.48549 | -89.98866 | 21374 ft | 374 kts | 99° |
| 2026-04-22 00:52 | 14.48123 | -89.96195 | 21873 ft | 378 kts | 99° |
| 2026-04-22 00:52 | 14.47698 | -89.93533 | 22327 ft | 382 kts | 99° |
| 2026-04-22 00:53 | 14.47266 | -89.90822 | 22821 ft | 385 kts | 99° |
| 2026-04-22 00:53 | 14.46826 | -89.88067 | 23314 ft | 388 kts | 99° |
| 2026-04-22 00:53 | 14.46389 | -89.85325 | 23791 ft | 391 kts | 99° |
| 2026-04-22 00:53 | 14.45946 | -89.82552 | 24247 ft | 395 kts | 99° |
| 2026-04-22 00:54 | 14.45497 | -89.79745 | 24691 ft | 398 kts | 99° |
| 2026-04-22 00:54 | 14.45043 | -89.76906 | 25137 ft | 401 kts | 99° |
| 2026-04-22 00:54 | 14.44587 | -89.74062 | 25576 ft | 404 kts | 99° |
| 2026-04-22 00:54 | 14.44126 | -89.71182 | 26014 ft | 407 kts | 99° |
| 2026-04-22 00:55 | 14.43665 | -89.68310 | 26441 ft | 410 kts | 99° |
| 2026-04-22 00:55 | 14.43197 | -89.65390 | 26864 ft | 413 kts | 99° |
| 2026-04-22 00:55 | 14.42252 | -89.59510 | 27677 ft | 418 kts | 99° |
| 2026-04-22 00:56 | 14.41774 | -89.56538 | 28066 ft | 421 kts | 100° |
| 2026-04-22 00:56 | 14.41294 | -89.53556 | 28444 ft | 424 kts | 100° |
| 2026-04-22 00:56 | 14.40807 | -89.50532 | 28813 ft | 427 kts | 100° |
| 2026-04-22 00:56 | 14.40319 | -89.47508 | 29170 ft | 430 kts | 100° |
| 2026-04-22 00:57 | 14.39829 | -89.44469 | 29517 ft | 433 kts | 100° |
| 2026-04-22 00:57 | 14.39331 | -89.41384 | 29857 ft | 437 kts | 100° |
| 2026-04-22 00:57 | 14.38824 | -89.38250 | 30191 ft | 440 kts | 99° |
| 2026-04-22 00:57 | 14.38319 | -89.35126 | 30539 ft | 443 kts | 99° |
| 2026-04-22 00:58 | 14.37818 | -89.32031 | 30884 ft | 445 kts | 100° |
| 2026-04-22 00:58 | 14.37304 | -89.28861 | 31069 ft | 438 kts | 100° |
| 2026-04-22 00:58 | 14.36276 | -89.22527 | 31110 ft | 457 kts | 100° |
| 2026-04-22 00:59 | 14.35209 | -89.15966 | 31116 ft | 475 kts | 100° |
| 2026-04-22 00:59 | 14.34111 | -89.09235 | 31109 ft | 476 kts | 100° |
| 2026-04-22 01:00 | 14.33585 | -89.06020 | 31116 ft | 475 kts | 100° |
| 2026-04-22 01:01 | 14.32776 | -89.01072 | 31134 ft | 474 kts | 100° |
| 2026-04-22 01:01 | 14.31682 | -88.94398 | 31134 ft | 474 kts | 100° |
| 2026-04-22 01:02 | 14.30585 | -88.87715 | 31137 ft | 473 kts | 99° |
| 2026-04-22 01:02 | 14.29485 | -88.81026 | 31121 ft | 472 kts | 99° |
| 2026-04-22 01:03 | 14.28386 | -88.74359 | 31103 ft | 471 kts | 99° |
| 2026-04-22 01:03 | 14.27294 | -88.67741 | 31126 ft | 471 kts | 99° |
| 2026-04-22 01:04 | 14.26049 | -88.61123 | 31143 ft | 471 kts | 107° |
| 2026-04-22 01:04 | 14.23475 | -88.54977 | 31195 ft | 470 kts | 116° |
| 2026-04-22 01:05 | 14.22079 | -88.51965 | 31189 ft | 459 kts | 115° |
| 2026-04-22 01:05 | 14.20706 | -88.48988 | 31192 ft | 454 kts | 115° |
| 2026-04-22 01:05 | 14.18003 | -88.43118 | 31179 ft | 456 kts | 115° |
| 2026-04-22 01:06 | 14.16651 | -88.40183 | 30726 ft | 457 kts | 115° |
| 2026-04-22 01:06 | 14.15301 | -88.37254 | 30226 ft | 451 kts | 115° |
| 2026-04-22 01:06 | 14.13972 | -88.34370 | 29737 ft | 444 kts | 115° |
| 2026-04-22 01:06 | 14.12656 | -88.31518 | 29248 ft | 438 kts | 115° |
| 2026-04-22 01:07 | 14.11349 | -88.28684 | 28762 ft | 433 kts | 115° |
| 2026-04-22 01:07 | 14.10078 | -88.25930 | 28292 ft | 430 kts | 115° |
| 2026-04-22 01:07 | 14.08797 | -88.23156 | 27808 ft | 427 kts | 115° |
| 2026-04-22 01:07 | 14.07528 | -88.20408 | 27333 ft | 424 kts | 115° |
| 2026-04-22 01:08 | 14.06262 | -88.17667 | 26875 ft | 420 kts | 115° |
| 2026-04-22 01:08 | 14.05020 | -88.14980 | 26422 ft | 417 kts | 115° |
| 2026-04-22 01:08 | 14.03777 | -88.12290 | 25978 ft | 414 kts | 115° |
| 2026-04-22 01:08 | 14.02552 | -88.09642 | 25540 ft | 411 kts | 115° |
| 2026-04-22 01:09 | 14.01325 | -88.06991 | 25087 ft | 408 kts | 115° |
| 2026-04-22 01:09 | 14.00124 | -88.04394 | 24665 ft | 404 kts | 115° |
| 2026-04-22 01:09 | 13.98905 | -88.01762 | 24231 ft | 402 kts | 115° |
| 2026-04-22 01:09 | 13.97720 | -87.99203 | 23794 ft | 400 kts | 115° |
| 2026-04-22 01:10 | 13.96523 | -87.96618 | 23337 ft | 398 kts | 115° |
| 2026-04-22 01:10 | 13.95339 | -87.94065 | 22897 ft | 394 kts | 115° |
| 2026-04-22 01:10 | 13.94167 | -87.91535 | 22441 ft | 391 kts | 115° |
| 2026-04-22 01:10 | 13.92999 | -87.89018 | 21980 ft | 388 kts | 115° |
| 2026-04-22 01:11 | 13.91844 | -87.86526 | 21535 ft | 385 kts | 114° |
| 2026-04-22 01:11 | 13.90699 | -87.84058 | 21098 ft | 384 kts | 114° |
| 2026-04-22 01:11 | 13.89550 | -87.81585 | 20669 ft | 382 kts | 114° |
| 2026-04-22 01:11 | 13.88406 | -87.79120 | 20225 ft | 380 kts | 114° |
| 2026-04-22 01:12 | 13.87301 | -87.76656 | 19773 ft | 378 kts | 107° |
| 2026-04-22 01:12 | 13.86986 | -87.74040 | 19386 ft | 374 kts | 83° |
| 2026-04-22 01:12 | 13.87566 | -87.71449 | 18973 ft | 372 kts | 73° |
| 2026-04-22 01:12 | 13.88325 | -87.68925 | 18554 ft | 370 kts | 72° |
| 2026-04-22 01:13 | 13.89104 | -87.66426 | 18133 ft | 367 kts | 71° |
| 2026-04-22 01:13 | 13.89894 | -87.63924 | 17740 ft | 363 kts | 71° |
| 2026-04-22 01:13 | 13.90666 | -87.61491 | 17381 ft | 361 kts | 71° |
| 2026-04-22 01:13 | 13.91444 | -87.59045 | 17019 ft | 359 kts | 71° |
| 2026-04-22 01:14 | 13.92218 | -87.56609 | 16643 ft | 357 kts | 71° |
| 2026-04-22 01:14 | 13.92993 | -87.54170 | 16239 ft | 354 kts | 71° |
| 2026-04-22 01:14 | 13.93748 | -87.51794 | 15872 ft | 352 kts | 71° |
| 2026-04-22 01:14 | 13.94506 | -87.49406 | 15493 ft | 349 kts | 71° |
| 2026-04-22 01:15 | 13.95262 | -87.47026 | 15096 ft | 347 kts | 71° |
| 2026-04-22 01:15 | 13.96007 | -87.44679 | 14712 ft | 343 kts | 71° |
| 2026-04-22 01:15 | 13.96736 | -87.42381 | 14331 ft | 340 kts | 71° |
| 2026-04-22 01:15 | 13.97471 | -87.40062 | 13967 ft | 335 kts | 71° |
| 2026-04-22 01:16 | 13.98178 | -87.37833 | 13579 ft | 324 kts | 71° |
| 2026-04-22 01:16 | 13.98856 | -87.35692 | 13215 ft | 305 kts | 71° |
| 2026-04-22 01:16 | 13.99501 | -87.33659 | 12932 ft | 296 kts | 71° |
| 2026-04-22 01:16 | 14.00131 | -87.31670 | 12607 ft | 293 kts | 71° |
| 2026-04-22 01:17 | 14.00760 | -87.29685 | 12272 ft | 291 kts | 71° |
| 2026-04-22 01:17 | 14.01392 | -87.27689 | 11944 ft | 291 kts | 71° |
| 2026-04-22 01:17 | 14.02008 | -87.25743 | 11627 ft | 290 kts | 71° |
| 2026-04-22 01:17 | 14.02636 | -87.23780 | 11303 ft | 288 kts | 68° |
| 2026-04-22 01:18 | 14.03808 | -87.22158 | 11012 ft | 281 kts | 36° |
| 2026-04-22 01:18 | 14.05574 | -87.21514 | 10724 ft | 265 kts | 0° |
| 2026-04-22 01:18 | 14.07306 | -87.22021 | 10324 ft | 260 kts | 324° |
| 2026-04-22 01:18 | 14.08612 | -87.23239 | 9986 ft | 251 kts | 318° |
| 2026-04-22 01:19 | 14.09849 | -87.24501 | 9673 ft | 249 kts | 317° |
| 2026-04-22 01:19 | 14.11073 | -87.25774 | 9397 ft | 251 kts | 317° |
| 2026-04-22 01:19 | 14.12307 | -87.27071 | 9116 ft | 251 kts | 316° |
| 2026-04-22 01:19 | 14.13528 | -87.28361 | 8833 ft | 250 kts | 316° |
| 2026-04-22 01:20 | 14.14604 | -87.29754 | 8485 ft | 255 kts | 292° |
| 2026-04-22 01:20 | 14.14726 | -87.31532 | 8236 ft | 248 kts | 252° |
| 2026-04-22 01:20 | 14.13806 | -87.32961 | 7780 ft | 242 kts | 214° |
| 2026-04-22 01:20 | 14.12271 | -87.33446 | 7335 ft | 234 kts | 173° |
| 2026-04-22 01:21 | 14.10747 | -87.32903 | 6891 ft | 228 kts | 150° |
| 2026-04-22 01:21 | 14.09423 | -87.32098 | 6434 ft | 214 kts | 135° |
| 2026-04-22 01:21 | 14.08355 | -87.31115 | 6123 ft | 196 kts | 134° |
| 2026-04-22 01:21 | 14.07472 | -87.30145 | 5803 ft | 178 kts | 119° |
| 2026-04-22 01:22 | 14.06841 | -87.29146 | 5512 ft | 161 kts | 118° |
| 2026-04-22 01:22 | 14.06248 | -87.28207 | 5208 ft | 148 kts | 119° |
| 2026-04-22 01:22 | 14.05713 | -87.27362 | 4957 ft | 139 kts | 118° |
| 2026-04-22 01:22 | 14.05231 | -87.26497 | 4697 ft | 140 kts | 112° |
| 2026-04-22 01:23 | 14.04723 | -87.25635 | 4478 ft | 141 kts | 126° |
| 2026-04-22 01:23 | 14.04256 | -87.24758 | 4205 ft | 140 kts | 100° |
| 2026-04-22 01:23 | 14.04188 | -87.23767 | 3933 ft | 140 kts | 81° |
| 2026-04-22 01:23 | 14.04478 | -87.22836 | 3673 ft | 137 kts | 57° |
| 2026-04-22 01:24 | 14.05124 | -87.22105 | 3428 ft | 136 kts | 26° |
| 2026-04-22 01:24 | 14.05982 | -87.21761 | 3300 ft | 109 kts | 22° |
| 2026-04-22 01:24 | 14.06392 | -87.21611 | 3280 ft | 39 kts | 18° |
| 2026-04-22 01:24 | 14.06573 | -87.21567 | 3271 ft | 14 kts | 326° |
| 2026-04-22 01:25 | 14.06593 | -87.21609 | 3270 ft | 2 kts | 263° |
| 2026-04-22 01:25 | 14.06593 | -87.21612 | 3270 ft | 0 kts | 250° |
| 2026-04-22 01:25 | 14.06561 | -87.21637 | 3272 ft | 11 kts | 203° |
| 2026-04-22 01:25 | 14.06498 | -87.21666 | 3276 ft | 9 kts | 238° |
| 2026-04-22 01:26 | 14.06495 | -87.21674 | 3276 ft | 0 kts | 253° |
| 2026-04-22 01:31 | 14.06460 | -87.21680 | 3278 ft | 13 kts | 186° |
| 2026-04-22 01:32 | 14.06380 | -87.21698 | 3282 ft | 6 kts | 194° |
| 2026-04-22 01:32 | 14.06357 | -87.21705 | 3283 ft | 8 kts | 201° |
| 2026-04-22 01:32 | 14.06249 | -87.21744 | 3288 ft | 18 kts | 196° |
| 2026-04-22 01:32 | 14.06138 | -87.21784 | 3293 ft | 15 kts | 199° |
| 2026-04-22 01:33 | 14.06088 | -87.21814 | 3296 ft | 3 kts | 269° |
| 2026-04-22 01:33 | 14.06097 | -87.21849 | 3294 ft | 5 kts | 290° |
| 2026-04-22 01:33 | 14.06102 | -87.21863 | 3293 ft | 0 kts | 290° |
| 2026-04-22 01:33 | 14.06103 | -87.21866 | 3293 ft | 0 kts | 290° |